Time;durP1;ratioP1;P1;durP2;ratioP2;P2;SDS_P1;SDS_P2;PMS_P1;PMS_P2;Temp;Humidity;BMP_temperature;BMP_pressure;BME280_temperature;BME280_humidity;BME280_pressure;Samples;Min_cycle;Max_cycle;Signal;HPM_P1;HPM_P2
2021/04/12 00:00:00;;;;;;;1.65;0.68;;;;;;;18.60;52.43;102300.97;4940719;29;20023;-70
2021/04/12 00:02:41;;;;;;;1.55;1.02;;;;;;;18.64;52.40;102321.16;4922850;29;20056;-70
2021/04/12 00:05:09;;;;;;;1.17;0.70;;;;;;;18.64;52.30;102326.41;4931190;29;20027;-68
2021/04/12 00:08:00;;;;;;;1.05;0.65;;;;;;;18.60;52.24;102316.69;4942509;29;20038;-68
2021/04/12 00:10:46;;;;;;;1.45;1.00;;;;;;;18.54;52.41;102317.47;4942350;29;20048;-69
2021/04/12 00:13:23;;;;;;;2.00;0.88;;;;;;;18.60;52.33;102328.06;4933138;29;20034;-68
2021/04/12 00:15:57;;;;;;;2.38;0.80;;;;;;;18.57;52.26;102330.59;4934564;29;20020;-69
2021/04/12 00:18:32;;;;;;;1.50;0.85;;;;;;;18.62;52.35;102338.56;4925975;29;20069;-69
2021/04/12 00:21:04;;;;;;;1.10;0.70;;;;;;;18.60;52.19;102330.69;4933326;29;22350;-70
2021/04/12 00:23:42;;;;;;;1.80;1.43;;;;;;;18.54;52.29;102325.31;4927358;29;20111;-70
2021/04/12 00:26:18;;;;;;;0.85;0.60;;;;;;;18.55;51.88;102324.47;4915538;29;20031;-70
2021/04/12 00:28:47;;;;;;;0.90;0.63;;;;;;;18.55;52.17;102329.72;4933897;29;20027;-70
2021/04/12 00:31:19;;;;;;;2.05;0.50;;;;;;;18.54;52.37;102322.69;4933179;29;20036;-68
2021/04/12 00:33:57;;;;;;;1.00;0.65;;;;;;;18.55;52.30;102324.47;4931283;29;20114;-71
2021/04/12 00:36:48;;;;;;;0.80;0.50;;;;;;;18.57;52.18;102327.97;4920384;29;20023;-70
2021/04/12 00:39:36;;;;;;;2.33;0.90;;;;;;;18.57;52.27;102327.97;4922446;29;20111;-70
2021/04/12 00:42:20;;;;;;;1.08;0.70;;;;;;;18.57;52.13;102330.59;4934081;29;20024;-70
2021/04/12 00:45:03;;;;;;;0.82;0.60;;;;;;;18.56;52.47;102332.31;4932724;29;20036;-70
2021/04/12 00:47:49;;;;;;;;;;;;;;;18.57;52.11;102335.81;4917641;29;20028;-68
2021/04/12 00:50:37;;;;;;;1.08;0.75;;;;;;;18.51;52.33;102334.00;4934192;29;19980;-70
2021/04/12 00:53:05;;;;;;;0.73;0.65;;;;;;;18.55;52.02;102342.81;4935237;29;20035;-70
2021/04/12 00:55:44;;;;;;;1.08;0.50;;;;;;;18.54;52.06;102338.41;4932590;29;20035;-70
2021/04/12 00:58:42;;;;;;;0.68;0.57;;;;;;;18.52;52.03;102346.25;4934332;29;20029;-69
2021/04/12 01:01:10;;;;;;;0.70;0.50;;;;;;;18.54;51.96;102339.31;4903540;29;20036;-69
2021/04/12 01:04:03;;;;;;;1.60;0.88;;;;;;;18.52;52.04;102346.25;4934059;29;20123;-68
2021/04/12 01:06:56;;;;;;;1.40;0.60;;;;;;;18.51;52.03;102346.22;4934787;29;20390;-69
2021/04/12 01:09:53;;;;;;;2.07;0.60;;;;;;;18.51;52.11;102343.59;4927118;29;20047;-69
2021/04/12 01:12:40;;;;;;;0.80;0.55;;;;;;;18.50;52.08;102345.31;4939204;29;20126;-71
2021/04/12 01:15:42;;;;;;;0.57;0.45;;;;;;;18.51;52.08;102348.84;4938097;29;20485;-70
2021/04/12 01:18:22;;;;;;;1.13;0.57;;;;;;;18.49;51.96;102351.41;4933001;29;20084;-70
2021/04/12 01:21:03;;;;;;;2.63;0.45;;;;;;;18.50;51.92;102344.44;4917427;29;20128;-69
2021/04/12 01:23:56;;;;;;;0.90;0.60;;;;;;;18.48;52.04;102347.03;4929621;29;20032;-68
2021/04/12 01:26:24;;;;;;;1.23;0.83;;;;;;;18.49;51.91;102350.53;4929647;29;20398;-69
2021/04/12 01:29:17;;;;;;;1.27;0.70;;;;;;;18.47;52.07;102360.09;4934904;29;20035;-68
2021/04/12 01:32:07;;;;;;;0.85;0.65;;;;;;;18.46;51.95;102359.22;4932791;29;20098;-69
2021/04/12 01:34:47;;;;;;;1.15;0.70;;;;;;;18.47;52.03;102360.97;4926050;29;20462;-70
2021/04/12 01:37:24;;;;;;;1.40;0.73;;;;;;;18.44;51.69;102360.03;4930069;29;20099;-70
2021/04/12 01:40:16;;;;;;;1.10;0.70;;;;;;;18.45;51.93;102373.16;4927281;29;20420;-75
2021/04/12 01:43:03;;;;;;;0.55;0.50;;;;;;;18.44;52.09;102367.88;4930799;29;20099;-75
2021/04/12 01:45:40;;;;;;;1.23;0.50;;;;;;;18.44;51.51;102367.88;4929896;29;20019;-76
2021/04/12 01:48:11;;;;;;;1.55;0.50;;;;;;;18.44;51.98;102370.50;4937328;29;20054;-76
2021/04/12 01:50:54;;;;;;;0.80;0.50;;;;;;;18.44;51.96;102374.00;4934793;29;20060;-76
2021/04/12 01:53:38;;;;;;;0.70;0.52;;;;;;;18.44;51.80;102375.75;4919832;29;20122;-76
2021/04/12 01:56:12;;;;;;;0.57;0.57;;;;;;;18.43;51.79;102381.88;4934241;29;20035;-76
2021/04/12 01:59:01;;;;;;;0.82;0.38;;;;;;;18.42;51.90;102385.34;4936826;29;20036;-76
2021/04/12 02:01:39;;;;;;;1.23;0.45;;;;;;;18.41;51.38;102379.22;4905126;29;20097;-76
2021/04/12 02:05:02;;;;;;;3.47;0.60;;;;;;;18.41;51.78;102381.84;4923785;29;20035;-76
2021/04/12 02:07:27;;;;;;;0.93;0.47;;;;;;;18.41;51.72;102394.03;4865342;29;20033;-74
2021/04/12 02:10:06;;;;;;;3.10;0.60;;;;;;;18.40;51.80;102390.53;4914731;29;20103;-74
2021/04/12 02:12:53;;;;;;;0.57;0.40;;;;;;;18.39;51.25;102399.25;4937273;29;20125;-75
2021/04/12 02:15:50;;;;;;;1.63;0.70;;;;;;;18.34;51.81;102385.16;4940393;29;20037;-75
2021/04/12 02:18:51;;;;;;;1.10;0.70;;;;;;;18.40;51.71;102403.63;4925673;29;20501;-75
2021/04/12 02:22:05;;;;;;;0.60;0.50;;;;;;;18.36;51.71;102398.28;4933330;29;20028;-75
2021/04/12 02:24:37;;;;;;;0.40;0.40;;;;;;;18.34;51.76;102400.00;4933891;29;20123;-75
2021/04/12 02:27:21;;;;;;;0.90;0.52;;;;;;;18.35;51.79;102402.66;4931059;29;20363;-75
2021/04/12 02:29:49;;;;;;;1.23;0.50;;;;;;;18.37;51.27;102408.81;4932209;29;20038;-75
2021/04/12 02:32:29;;;;;;;1.08;0.60;;;;;;;18.36;51.69;102407.03;4936077;29;20497;-75
2021/04/12 02:35:14;;;;;;;0.65;0.43;;;;;;;18.39;51.64;102403.59;4934602;29;20046;-74
2021/04/12 02:37:44;;;;;;;0.88;0.50;;;;;;;18.45;51.94;102399.34;4921356;29;20114;-75
2021/04/12 02:40:29;;;;;;;0.85;0.40;;;;;;;18.46;51.73;102400.25;4933016;29;20475;-74
2021/04/12 02:43:22;;;;;;;0.65;0.30;;;;;;;18.45;51.76;102395.84;4929465;29;20039;-75
2021/04/12 02:46:12;;;;;;;0.30;0.30;;;;;;;18.46;52.01;102398.50;4929142;29;20043;-75
2021/04/12 02:49:02;;;;;;;0.85;0.73;;;;;;;18.59;51.79;102407.53;4936469;29;20062;-75
2021/04/12 02:52:12;;;;;;;1.02;0.60;;;;;;;18.54;52.07;102403.91;4936020;29;20036;-75
2021/04/12 02:54:55;;;;;;;0.50;0.40;;;;;;;18.58;52.12;102411.00;4914140;29;20055;-69
2021/04/12 02:57:35;;;;;;;;;;;;;;;18.64;52.19;102411.13;4931409;29;20159;-69
2021/04/12 03:00:13;;;;;;;0.90;0.30;;;;;;;18.64;52.17;102408.50;4933682;29;20416;-69
2021/04/12 03:02:57;;;;;;;0.65;0.43;;;;;;;18.62;52.42;102417.19;4941545;29;20027;-69
2021/04/12 03:05:48;;;;;;;0.32;0.32;;;;;;;18.67;52.07;102405.94;4932264;29;20119;-69
2021/04/12 03:08:47;;;;;;;0.43;0.40;;;;;;;18.71;52.28;102415.63;4934784;29;20449;-69
2021/04/12 03:11:58;;;;;;;0.82;0.40;;;;;;;18.66;52.48;102417.28;4907789;29;20415;-70
2021/04/12 03:14:42;;;;;;;0.68;0.43;;;;;;;18.72;52.29;102417.38;4915261;29;20031;-69
2021/04/12 03:17:26;;;;;;;;;;;;;;;18.75;52.22;102422.69;4909546;29;20376;-70
2021/04/12 03:19:58;;;;;;;0.70;0.60;;;;;;;18.71;52.42;102415.63;4909142;29;20330;-70
2021/04/12 03:22:38;;;;;;;0.52;0.32;;;;;;;18.69;52.36;102416.47;4914759;29;20028;-70
2021/04/12 03:25:33;;;;;;;0.85;0.50;;;;;;;18.65;52.46;102418.13;4905644;29;20083;-70
2021/04/12 03:28:20;;;;;;;0.57;0.43;;;;;;;18.63;52.60;102414.59;4888264;29;20037;-70
2021/04/12 03:31:23;;;;;;;0.73;0.47;;;;;;;18.59;52.46;102412.75;4909033;29;20495;-70
2021/04/12 03:34:03;;;;;;;0.60;0.40;;;;;;;18.61;52.40;102415.41;4911261;29;20080;-70
2021/04/12 03:36:54;;;;;;;0.50;0.25;;;;;;;18.56;52.48;102410.06;4891983;29;20071;-70
2021/04/12 03:39:25;;;;;;;1.30;0.40;;;;;;;18.52;52.52;102408.22;4912038;29;20095;-70
2021/04/12 03:42:03;;;;;;;1.52;0.40;;;;;;;18.58;52.46;102424.09;4912484;29;20036;-70
2021/04/12 03:44:48;;;;;;;2.08;0.50;;;;;;;18.56;52.40;102428.41;4904744;29;20032;-70
2021/04/12 03:47:47;;;;;;;0.75;0.50;;;;;;;18.55;52.35;102426.63;4905855;29;20111;-71
2021/04/12 03:50:25;;;;;;;0.55;0.43;;;;;;;18.53;52.24;102428.34;4907240;29;20042;-69
2021/04/12 03:53:08;;;;;;;0.82;0.52;;;;;;;18.51;52.41;102433.53;4908875;29;20036;-68
2021/04/12 03:56:19;;;;;;;1.10;0.40;;;;;;;18.50;52.30;102444.88;4906417;29;20051;-68
2021/04/12 03:59:22;;;;;;;1.08;0.40;;;;;;;18.51;52.16;102449.25;4909391;29;20051;-69
2021/04/12 04:02:02;;;;;;;1.08;0.55;;;;;;;18.46;52.23;102447.38;4909423;29;20028;-69
2021/04/12 04:04:37;;;;;;;1.05;0.50;;;;;;;18.48;52.08;102467.53;4909333;29;20032;-69
2021/04/12 04:07:37;;;;;;;0.63;0.35;;;;;;;18.47;51.92;102468.38;4909320;29;22130;-69
2021/04/12 04:10:26;;;;;;;0.90;0.50;;;;;;;18.48;51.73;102464.03;4855155;29;20447;-69
2021/04/12 04:13:06;;;;;;;0.50;0.40;;;;;;;18.46;51.71;102463.09;4895857;29;20047;-68
2021/04/12 04:15:57;;;;;;;0.40;0.40;;;;;;;18.45;51.72;102461.34;4904256;29;20028;-68
2021/04/12 04:18:26;;;;;;;0.65;0.55;;;;;;;18.45;51.54;102456.97;4901404;29;20021;-68
2021/04/12 04:21:17;;;;;;;0.75;0.68;;;;;;;18.45;51.79;102454.34;4897460;29;20028;-69
2021/04/12 04:23:48;;;;;;;0.50;0.38;;;;;;;18.44;51.60;102452.59;4911324;29;20020;-68
2021/04/12 04:26:35;;;;;;;0.47;0.40;;;;;;;18.44;51.66;102455.22;4909409;29;20037;-70
2021/04/12 04:29:22;;;;;;;1.02;0.30;;;;;;;18.44;51.54;102462.19;4910574;29;20067;-70
2021/04/12 04:32:16;;;;;;;0.77;0.43;;;;;;;18.44;51.46;102459.56;4912231;29;20042;-70
2021/04/12 04:35:09;;;;;;;0.88;0.63;;;;;;;18.42;51.48;102464.81;4911444;29;20039;-70
2021/04/12 04:38:06;;;;;;;0.90;0.60;;;;;;;18.46;51.72;102456.13;4918765;29;20029;-70
2021/04/12 04:41:22;;;;;;;0.50;0.50;;;;;;;18.57;51.38;102457.22;4904461;29;20032;-69
2021/04/12 04:43:59;;;;;;;0.75;0.40;;;;;;;18.57;51.29;102448.50;4880619;29;20486;-70
2021/04/12 04:46:36;;;;;;;0.40;0.30;;;;;;;18.62;51.39;102461.72;4915184;29;20062;-70
2021/04/12 04:49:30;;;;;;;0.98;0.50;;;;;;;18.69;51.31;102471.50;4918328;29;20024;-69
2021/04/12 04:52:22;;;;;;;1.67;0.52;;;;;;;18.72;51.35;102468.91;4912892;29;20028;-72
2021/04/12 04:55:12;;;;;;;3.10;0.47;;;;;;;18.70;51.51;102474.13;4905256;29;20108;-71
2021/04/12 04:58:00;;;;;;;0.90;0.63;;;;;;;18.78;51.18;102487.38;4911371;29;20052;-71
2021/04/12 05:00:32;;;;;;;0.43;0.30;;;;;;;18.82;51.39;102484.00;4895600;29;20360;-71
2021/04/12 05:03:16;;;;;;;1.10;0.30;;;;;;;18.79;51.73;102487.44;4914825;29;20027;-70
2021/04/12 05:06:07;;;;;;;0.90;0.50;;;;;;;18.81;51.25;102488.34;4909109;29;20032;-71
2021/04/12 05:08:53;;;;;;;0.52;0.30;;;;;;;18.86;51.34;102493.66;4910623;29;20067;-70
2021/04/12 05:11:36;;;;;;;1.63;0.68;;;;;;;18.89;51.27;102494.59;4907687;29;20048;-70
2021/04/12 05:14:44;;;;;;;2.67;0.60;;;;;;;18.82;51.24;102497.97;4912117;29;20064;-69
2021/04/12 05:17:38;;;;;;;4.35;0.75;;;;;;;18.83;51.35;102496.22;4907949;29;20037;-69
2021/04/12 05:20:07;;;;;;;1.20;0.68;;;;;;;18.87;51.38;102500.66;4903472;29;20021;-70
2021/04/12 05:22:57;;;;;;;2.95;1.15;;;;;;;18.87;51.57;102506.78;4901286;29;20028;-70
2021/04/12 05:25:44;;;;;;;4.57;1.63;;;;;;;18.87;51.72;102508.53;4909066;29;20025;-70
2021/04/12 05:28:22;;;;;;;2.53;1.38;;;;;;;18.87;51.78;102503.28;4900368;29;20115;-71
2021/04/12 05:30:54;;;;;;;3.17;1.30;;;;;;;18.95;51.94;102511.31;4905748;29;20036;-69
2021/04/12 05:33:43;;;;;;;6.82;2.05;;;;;;;18.90;51.96;102508.59;4916897;29;20097;-70
2021/04/12 05:36:31;;;;;;;3.72;1.63;;;;;;;18.91;52.01;102503.38;4916354;29;20036;-69
2021/04/12 05:39:12;;;;;;;2.90;1.45;;;;;;;18.92;52.23;102528.75;4912113;29;20101;-69
2021/04/12 05:42:13;;;;;;;2.85;1.55;;;;;;;18.91;52.28;102539.22;4901735;29;20032;-69
2021/04/12 05:44:53;;;;;;;3.47;1.67;;;;;;;18.95;51.96;102553.28;4914974;29;20135;-69
2021/04/12 05:47:25;;;;;;;3.70;1.60;;;;;;;18.90;52.39;102545.31;4916256;29;20039;-69
2021/04/12 05:50:11;;;;;;;3.75;1.38;;;;;;;18.92;52.34;102554.97;4912980;29;20035;-69
2021/04/12 05:53:04;;;;;;;3.30;1.55;;;;;;;18.95;52.32;102577.75;4912508;29;20020;-69
2021/04/12 05:55:38;;;;;;;3.58;1.20;;;;;;;19.00;52.16;102575.19;4912239;29;20028;-70
2021/04/12 05:58:25;;;;;;;2.33;1.00;;;;;;;18.97;52.25;102589.13;4914859;29;20384;-70
2021/04/12 06:01:09;;;;;;;4.38;1.23;;;;;;;18.92;52.05;102589.06;4915791;29;20035;-71
2021/04/12 06:03:53;;;;;;;3.38;1.50;;;;;;;19.02;52.13;102594.47;4915602;29;20032;-68
2021/04/12 06:07:08;;;;;;;2.88;2.22;;;;;;;18.98;52.00;102585.66;4912761;29;20029;-70
2021/04/12 06:10:11;;;;;;;3.70;1.17;;;;;;;18.99;52.21;102603.16;4915438;29;20466;-70
2021/04/12 06:12:48;;;;;;;7.05;2.38;;;;;;;19.01;52.18;102593.59;4935331;29;20040;-70
2021/04/12 06:15:42;;;;;;;2.80;1.25;;;;;;;19.00;52.06;102589.19;4932169;29;20028;-69
2021/04/12 06:18:10;;;;;;;2.10;1.10;;;;;;;19.00;52.26;102591.81;4932663;29;20019;-68
2021/04/12 06:20:57;;;;;;;3.13;1.20;;;;;;;19.04;52.04;102592.78;4926814;29;20111;-69
2021/04/12 06:24:09;;;;;;;2.13;0.85;;;;;;;19.04;52.17;102595.41;4918269;29;20024;-69
2021/04/12 06:26:59;;;;;;;1.98;0.88;;;;;;;19.06;51.87;102601.56;4905268;29;20074;-69
2021/04/12 06:29:43;;;;;;;2.13;0.95;;;;;;;19.09;51.84;102594.63;4916349;29;20487;-69
2021/04/12 06:32:42;;;;;;;3.60;0.93;;;;;;;19.06;51.83;102585.81;4925345;29;20031;-69
2021/04/12 06:35:43;;;;;;;2.45;1.17;;;;;;;19.08;51.87;102592.88;4917827;29;20145;-69
2021/04/12 06:38:38;;;;;;;2.33;1.27;;;;;;;19.12;51.82;102594.69;4922606;29;20118;-70
2021/04/12 06:41:38;;;;;;;2.35;0.85;;;;;;;19.11;51.83;102595.53;4915849;29;20055;-70
2021/04/12 06:45:00;;;;;;;3.88;1.27;;;;;;;19.14;51.88;102594.72;4926148;29;20027;-72
2021/04/12 06:47:47;;;;;;;2.78;1.20;;;;;;;19.18;51.84;102600.06;4878877;29;20534;-71
2021/04/12 06:50:37;;;;;;;1.15;0.88;;;;;;;19.18;51.88;102602.69;4894982;29;20029;-71
2021/04/12 06:53:40;;;;;;;1.77;1.00;;;;;;;19.22;51.79;102606.25;4932512;29;20036;-71
2021/04/12 06:56:08;;;;;;;3.13;0.87;;;;;;;19.24;51.63;102607.16;4931309;29;20032;-71
2021/04/12 06:58:52;;;;;;;1.58;0.90;;;;;;;19.25;51.60;102611.56;4921576;29;20020;-71
2021/04/12 07:01:59;;;;;;;2.15;1.10;;;;;;;19.29;51.45;102613.38;4927851;29;20035;-70
2021/04/12 07:04:36;;;;;;;2.22;0.93;;;;;;;19.29;51.52;102613.38;4929835;29;20027;-71
2021/04/12 07:07:37;;;;;;;1.83;0.80;;;;;;;19.24;51.54;102620.28;4936075;29;20032;-71
2021/04/12 07:10:42;;;;;;;1.20;0.52;;;;;;;19.28;51.55;102612.50;4924356;29;20032;-71
2021/04/12 07:13:14;;;;;;;2.05;1.35;;;;;;;19.28;51.58;102616.88;4893350;29;20048;-71
2021/04/12 07:16:04;;;;;;;2.03;1.00;;;;;;;19.26;51.50;102622.06;4899625;29;20067;-71
2021/04/12 07:18:48;;;;;;;1.52;1.30;;;;;;;19.30;51.61;102622.16;4916181;29;20036;-71
2021/04/12 07:21:38;;;;;;;1.80;1.20;;;;;;;19.32;51.33;102626.56;4908154;29;20525;-71
2021/04/12 07:24:39;;;;;;;2.05;1.40;;;;;;;19.14;51.60;102597.34;4907290;29;20440;-71
2021/04/12 07:27:43;;;;;;;1.63;0.88;;;;;;;19.28;51.39;102609.88;4887375;29;20594;-71
2021/04/12 07:30:33;;;;;;;2.05;0.88;;;;;;;19.35;51.33;102631.84;4911531;29;20024;-71
2021/04/12 07:34:00;;;;;;;2.10;1.23;;;;;;;19.33;51.46;102632.72;4914952;29;20039;-71
2021/04/12 07:36:35;;;;;;;1.15;0.90;;;;;;;19.33;51.58;102630.97;4836392;29;20042;-71
2021/04/12 07:39:43;;;;;;;1.75;0.70;;;;;;;19.42;50.86;102640.75;4909372;29;20546;-71
2021/04/12 07:42:43;;;;;;;2.03;0.77;;;;;;;19.42;51.16;102638.13;4885985;29;20047;-71
2021/04/12 07:45:33;;;;;;;3.20;1.00;;;;;;;19.50;50.98;102640.06;4908305;29;20024;-71
2021/04/12 07:48:30;;;;;;;1.10;0.70;;;;;;;19.47;50.99;102642.63;4910966;29;20028;-71
2021/04/12 07:51:23;;;;;;;1.20;0.60;;;;;;;19.51;50.92;102643.56;4911277;29;20031;-71
2021/04/12 07:54:06;;;;;;;1.55;0.57;;;;;;;19.52;50.94;102647.97;4911003;29;20028;-71
2021/04/12 07:57:16;;;;;;;1.35;0.68;;;;;;;19.48;51.11;102652.22;4914837;29;20061;-71
2021/04/12 08:00:31;;;;;;;1.35;1.08;;;;;;;19.50;51.07;102658.44;4904422;29;20493;-71
2021/04/12 08:03:02;;;;;;;1.20;0.57;;;;;;;19.50;51.15;102660.19;4911584;29;20040;-71
2021/04/12 08:05:50;;;;;;;1.23;0.60;;;;;;;19.46;51.21;102660.97;4911564;29;20039;-71
2021/04/12 08:08:34;;;;;;;1.40;0.80;;;;;;;19.45;50.77;102654.81;4913804;29;20028;-71
2021/04/12 08:11:43;;;;;;;1.60;0.60;;;;;;;19.47;51.07;102658.38;4919673;29;20147;-71
2021/04/12 08:14:46;;;;;;;1.52;0.70;;;;;;;19.49;50.93;102664.53;4905690;29;20030;-71
2021/04/12 08:17:30;;;;;;;1.23;0.80;;;;;;;19.48;51.08;102672.34;4903938;29;20470;-71
2021/04/12 08:20:25;;;;;;;0.65;0.47;;;;;;;19.42;51.23;102669.59;4899063;29;20047;-71
2021/04/12 08:23:08;;;;;;;0.82;0.60;;;;;;;19.42;51.29;102670.50;4919123;29;20043;-71
2021/04/12 08:25:55;;;;;;;1.92;0.68;;;;;;;19.40;51.33;102674.81;4915990;29;20028;-71
2021/04/12 08:28:55;;;;;;;2.42;0.70;;;;;;;19.38;51.38;102673.91;4915977;29;20036;-71
2021/04/12 08:31:53;;;;;;;2.25;1.00;;;;;;;19.32;51.40;102672.91;4914428;29;20114;-71
2021/04/12 08:34:41;;;;;;;0.82;0.60;;;;;;;19.32;51.24;102668.56;4909998;29;20031;-71
2021/04/12 08:37:58;;;;;;;1.42;0.75;;;;;;;19.26;51.42;102677.16;4929419;29;20036;-70
2021/04/12 08:41:10;;;;;;;0.98;0.52;;;;;;;19.26;51.45;102685.03;4914787;29;20027;-70
2021/04/12 08:43:44;;;;;;;1.17;0.88;;;;;;;19.25;51.48;102687.63;4897755;29;20072;-71
2021/04/12 08:46:37;;;;;;;1.00;0.50;;;;;;;19.25;51.50;102688.50;4912588;29;20034;-70
2021/04/12 08:49:45;;;;;;;1.45;0.52;;;;;;;19.24;51.27;102686.72;4896184;29;20111;-71
2021/04/12 08:52:32;;;;;;;1.58;0.80;;;;;;;19.22;51.21;102688.44;4927762;29;20491;-70
2021/04/12 08:55:03;;;;;;;1.27;0.55;;;;;;;19.26;51.19;102690.28;4908526;29;20039;-70
2021/04/12 08:57:49;;;;;;;1.38;0.70;;;;;;;19.30;51.19;102690.34;4920043;29;20024;-78
2021/04/12 09:00:29;;;;;;;1.73;0.43;;;;;;;19.32;51.18;102681.66;4909946;29;20028;-79
2021/04/12 09:03:20;;;;;;;0.98;0.70;;;;;;;19.37;50.79;102686.97;4915740;29;20118;-78
2021/04/12 09:06:08;;;;;;;0.70;0.43;;;;;;;19.31;50.60;102682.50;4910690;29;20141;-78
2021/04/12 09:08:42;;;;;;;1.67;0.68;;;;;;;19.25;50.94;102679.75;4914461;29;20099;-78
2021/04/12 09:11:45;;;;;;;2.60;0.98;;;;;;;19.21;50.91;102689.28;4896529;29;20491;-78
2021/04/12 09:14:32;;;;;;;0.75;0.60;;;;;;;19.16;51.06;102688.31;4912237;29;20028;-78
2021/04/12 09:17:16;;;;;;;0.77;0.40;;;;;;;19.16;51.01;102696.19;4919319;29;20028;-78
2021/04/12 09:20:09;;;;;;;1.60;0.60;;;;;;;19.23;50.98;102699.81;4922369;29;20037;-79
2021/04/12 09:22:56;;;;;;;1.15;0.65;;;;;;;19.20;50.91;102703.28;4911617;29;20024;-79
2021/04/12 09:25:59;;;;;;;0.95;0.63;;;;;;;19.22;50.78;102705.91;4923532;29;20035;-78
2021/04/12 09:28:54;;;;;;;1.45;0.60;;;;;;;19.14;50.48;102692.63;4930995;29;20032;-79
2021/04/12 09:31:31;;;;;;;1.05;0.60;;;;;;;19.21;50.52;102696.28;4910367;29;20043;-79
2021/04/12 09:34:11;;;;;;;0.93;0.52;;;;;;;19.27;50.58;102710.41;4908773;29;20036;-78
2021/04/12 09:37:14;;;;;;;0.93;0.60;;;;;;;19.24;50.62;102719.94;4904791;29;20115;-78
2021/04/12 09:40:09;;;;;;;1.38;0.80;;;;;;;19.21;50.56;102712.03;4915435;29;20024;-78
2021/04/12 09:42:46;;;;;;;1.67;0.70;;;;;;;19.16;50.43;102718.91;4907482;29;20024;-78
2021/04/12 09:45:15;;;;;;;1.33;0.70;;;;;;;19.19;50.42;102716.34;4916098;29;20050;-78
2021/04/12 09:47:51;;;;;;;1.80;0.73;;;;;;;19.18;50.67;102717.19;4911182;29;20028;-78
2021/04/12 09:50:55;;;;;;;2.42;0.50;;;;;;;19.22;50.77;102724.25;4905748;29;20071;-78
2021/04/12 09:53:41;;;;;;;0.90;0.75;;;;;;;19.18;50.55;102720.72;4923024;29;20076;-78
2021/04/12 09:56:27;;;;;;;0.90;0.57;;;;;;;19.07;50.49;102709.09;4917321;29;20064;-78
2021/04/12 09:59:11;;;;;;;1.67;0.70;;;;;;;19.18;50.44;102733.81;4928051;29;20036;-78
2021/04/12 10:01:48;;;;;;;1.98;1.20;;;;;;;19.16;50.46;102721.53;4929530;29;20040;-79
2021/04/12 10:04:35;;;;;;;1.02;0.57;;;;;;;19.08;50.54;102721.38;4910985;29;20386;-70
2021/04/12 10:07:13;;;;;;;1.33;0.63;;;;;;;19.17;50.40;102736.41;4905898;29;20040;-70
2021/04/12 10:10:17;;;;;;;0.68;0.50;;;;;;;19.18;50.34;102736.44;4908529;29;20036;-70
2021/04/12 10:13:23;;;;;;;1.00;0.60;;;;;;;19.18;50.35;102738.19;4811523;29;20126;-70
2021/04/12 10:16:14;;;;;;;1.42;0.82;;;;;;;19.19;50.40;102739.97;4908488;29;20123;-71
2021/04/12 10:19:04;;;;;;;0.80;0.60;;;;;;;19.18;50.46;102739.06;4910120;29;20439;-78
2021/04/12 10:22:11;;;;;;;0.60;0.50;;;;;;;19.15;50.30;102745.97;4911481;29;20083;-78
2021/04/12 10:24:56;;;;;;;1.27;0.80;;;;;;;19.15;50.42;102740.72;4874180;29;20096;-79
2021/04/12 10:27:37;;;;;;;1.13;0.68;;;;;;;19.15;50.37;102745.97;4910457;29;20048;-78
2021/04/12 10:30:17;;;;;;;1.17;0.57;;;;;;;19.10;50.28;102750.22;4916513;29;20043;-79
2021/04/12 10:32:55;;;;;;;1.02;0.55;;;;;;;19.10;50.63;102745.84;4905279;29;20062;-78
2021/04/12 10:35:30;;;;;;;1.45;0.70;;;;;;;19.04;50.44;102735.25;4918509;29;20035;-76
2021/04/12 10:38:21;;;;;;;1.42;0.85;;;;;;;19.14;50.41;102747.72;4911291;29;20035;-73
2021/04/12 10:40:58;;;;;;;4.53;1.02;;;;;;;19.10;50.29;102740.63;4907425;29;20040;-73
2021/04/12 10:43:49;;;;;;;1.42;0.75;;;;;;;19.27;50.29;102749.75;4912265;29;20039;-74
2021/04/12 10:46:29;;;;;;;1.42;0.70;;;;;;;19.36;50.29;102750.78;4910205;29;20103;-70
2021/04/12 10:49:07;;;;;;;1.38;0.77;;;;;;;19.30;50.32;102756.81;4916182;29;20032;-70
2021/04/12 10:52:03;;;;;;;1.65;0.65;;;;;;;19.42;50.53;102758.81;4913269;29;20387;-70
2021/04/12 10:54:43;;;;;;;1.25;0.85;;;;;;;19.49;50.36;102761.63;4911448;29;20032;-70
2021/04/12 10:57:13;;;;;;;1.20;0.80;;;;;;;19.52;50.39;102756.44;4911692;29;20075;-69
2021/04/12 11:00:10;;;;;;;1.77;0.90;;;;;;;19.54;50.38;102759.09;4914280;29;20388;-69
2021/04/12 11:02:54;;;;;;;1.63;0.70;;;;;;;19.50;50.42;102758.16;4913360;29;20091;-70
2021/04/12 11:05:25;;;;;;;;;;;;;;;19.60;50.29;102760.09;4911324;29;20109;-69
2021/04/12 11:08:13;;;;;;;1.23;0.50;;;;;;;19.57;50.07;102764.44;4898598;29;20422;-70
2021/04/12 11:11:23;;;;;;;3.15;1.00;;;;;;;19.66;50.19;102766.34;4901614;29;20068;-70
2021/04/12 11:13:53;;;;;;;1.42;0.70;;;;;;;19.68;50.09;102772.53;4923632;29;20043;-76
2021/04/12 11:16:38;;;;;;;0.70;0.70;;;;;;;19.65;50.26;102772.44;4922108;29;20493;-77
2021/04/12 11:19:22;;;;;;;0.73;0.73;;;;;;;19.68;50.15;102768.16;4928659;29;20055;-77
2021/04/12 11:21:50;;;;;;;0.95;0.55;;;;;;;19.71;50.01;102773.47;4913969;29;20047;-77
2021/04/12 11:24:37;;;;;;;0.70;0.52;;;;;;;19.65;50.31;102770.72;4918803;29;20533;-77
2021/04/12 11:27:24;;;;;;;1.23;0.50;;;;;;;19.72;50.13;102790.13;4932640;29;20649;-78
2021/04/12 11:30:01;;;;;;;0.80;0.60;;;;;;;19.73;50.11;102781.38;4915397;29;20032;-77
2021/04/12 11:32:40;;;;;;;1.33;0.50;;;;;;;19.72;49.96;102779.63;4937579;29;20032;-77
2021/04/12 11:35:17;;;;;;;1.13;0.98;;;;;;;19.67;50.35;102786.50;4926713;29;20368;-77
2021/04/12 11:38:05;;;;;;;1.17;0.60;;;;;;;19.68;50.33;102793.50;4931139;29;20040;-77
2021/04/12 11:40:36;;;;;;;1.60;0.70;;;;;;;19.58;50.43;102771.44;4918101;29;20034;-77
2021/04/12 11:43:15;;;;;;;0.77;0.60;;;;;;;19.59;50.48;102784.59;4927041;29;20039;-77
2021/04/12 11:45:40;;;;;;;1.45;0.57;;;;;;;19.62;50.60;102789.91;4919350;29;20028;-77
2021/04/12 11:48:18;;;;;;;1.00;0.77;;;;;;;19.58;50.65;102792.44;4918870;29;20028;-69
2021/04/12 11:50:46;;;;;;;0.80;0.60;;;;;;;19.55;50.74;102781.88;4912932;29;20024;-69
2021/04/12 11:53:40;;;;;;;1.05;0.80;;;;;;;19.56;50.60;102786.28;4937772;29;20027;-69
2021/04/12 11:56:25;;;;;;;1.02;0.65;;;;;;;19.61;50.11;102797.72;4919382;29;20047;-69
2021/04/12 11:59:04;;;;;;;1.15;0.63;;;;;;;19.55;50.62;102782.75;4912482;29;20036;-69
2021/04/12 12:01:49;;;;;;;1.40;0.90;;;;;;;19.56;50.57;102805.53;4918359;29;20561;-70
2021/04/12 12:04:32;;;;;;;1.30;0.80;;;;;;;19.46;50.66;102793.03;4929603;29;20059;-69
2021/04/12 12:07:08;;;;;;;1.40;0.60;;;;;;;19.49;50.83;102800.97;4921180;29;20035;-69
2021/04/12 12:09:54;;;;;;;0.85;0.60;;;;;;;19.47;50.77;102807.94;4929398;29;20062;-69
2021/04/12 12:12:30;;;;;;;1.00;0.70;;;;;;;19.48;50.58;102817.53;4913225;29;20181;-70
2021/04/12 12:15:18;;;;;;;1.15;0.52;;;;;;;19.45;50.82;102819.25;4914667;29;20036;-69
2021/04/12 12:17:51;;;;;;;0.65;0.60;;;;;;;19.41;50.73;102799.03;4906268;29;20024;-69
2021/04/12 12:20:23;;;;;;;0.70;0.50;;;;;;;19.45;50.68;102804.38;4903797;29;20036;-69
2021/04/12 12:23:29;;;;;;;1.63;0.98;;;;;;;19.49;50.58;102815.84;4909384;29;20040;-69
2021/04/12 12:25:59;;;;;;;1.05;0.73;;;;;;;19.44;50.74;102813.09;4911020;29;20119;-69
2021/04/12 12:28:42;;;;;;;0.98;0.75;;;;;;;19.41;50.71;102810.41;4904380;29;20028;-69
2021/04/12 12:31:30;;;;;;;0.67;0.67;;;;;;;19.45;50.61;102825.38;4892908;29;20028;-69
2021/04/12 12:34:01;;;;;;;0.80;0.70;;;;;;;19.44;50.58;102820.09;4910009;29;20051;-71
2021/04/12 12:37:07;;;;;;;1.20;0.80;;;;;;;19.48;50.62;102825.41;4900173;29;20508;-69
2021/04/12 12:39:36;;;;;;;1.17;0.73;;;;;;;19.47;50.60;102831.53;4895173;29;21650;-69
2021/04/12 12:42:06;;;;;;;2.13;0.80;;;;;;;19.40;50.75;102828.72;4888934;29;20057;-69
2021/04/12 12:44:34;;;;;;;0.70;0.60;;;;;;;19.42;50.70;102833.16;4911714;29;20036;-69
2021/04/12 12:47:07;;;;;;;1.38;0.85;;;;;;;19.43;50.60;102842.81;4883645;29;20033;-71
2021/04/12 12:49:38;;;;;;;1.00;0.70;;;;;;;19.45;50.44;102832.34;4910810;29;20032;-76
2021/04/12 12:52:13;;;;;;;1.08;0.70;;;;;;;19.47;50.53;102846.41;4917096;29;20028;-77
2021/04/12 12:54:50;;;;;;;0.77;0.50;;;;;;;19.44;50.51;102841.97;4909522;29;20107;-69